createdAt,value
2023-03-26T00:01:33.491Z,48.50
2023-03-26T00:04:01.676Z,48.56
2023-03-26T00:06:31.175Z,49.58
2023-03-26T00:08:58.929Z,48.37
2023-03-26T00:11:28.313Z,47.79
2023-03-26T00:13:59.248Z,48.13
2023-03-26T00:16:29.451Z,47.92
2023-03-26T00:18:57.776Z,48.36
2023-03-26T00:21:28.027Z,48.59
2023-03-26T00:24:04.434Z,48.54
2023-03-26T00:26:34.113Z,47.95
2023-03-26T00:29:03.713Z,49.78
2023-03-26T00:31:31.788Z,48.92
2023-03-26T00:34:03.205Z,48.93
2023-03-26T00:36:31.058Z,49.51
2023-03-26T00:38:58.473Z,49.19
2023-03-26T00:41:26.994Z,48.73
2023-03-26T00:43:56.984Z,50.38
2023-03-26T00:46:25.855Z,49.00
2023-03-26T00:48:54.021Z,49.30
2023-03-26T00:51:22.091Z,48.46
2023-03-26T00:53:50.535Z,48.46
2023-03-26T00:56:18.632Z,50.99
2023-03-26T00:58:50.076Z,50.01
2023-03-26T01:01:29.197Z,50.58
2023-03-26T01:04:08.321Z,49.54
2023-03-26T01:06:41.434Z,50.98
2023-03-26T01:09:21.311Z,49.80
2023-03-26T01:11:49.661Z,50.20
2023-03-26T01:14:21.268Z,49.69
2023-03-26T01:16:52.484Z,49.14
2023-03-26T01:19:45.278Z,49.40
2023-03-26T01:22:16.579Z,50.03
2023-03-26T01:24:48.654Z,49.18
2023-03-26T01:27:35.982Z,50.01
2023-03-26T01:30:20.874Z,49.80
2023-03-26T01:33:19.640Z,48.88
2023-03-26T01:36:06.180Z,50.34
2023-03-26T01:38:52.198Z,49.14
2023-03-26T01:41:45.613Z,48.65
2023-03-26T01:44:22.074Z,49.98
2023-03-26T01:46:50.266Z,48.16
2023-03-26T01:49:18.401Z,48.08
2023-03-26T01:51:45.987Z,47.31
2023-03-26T01:54:21.189Z,47.64
2023-03-26T01:56:51.002Z,46.73
2023-03-26T01:59:39.194Z,46.19
2023-03-26T02:02:13.934Z,46.66
2023-03-26T02:04:53.907Z,46.90
2023-03-26T02:07:38.179Z,46.46
2023-03-26T02:10:21.612Z,45.97
2023-03-26T02:12:49.923Z,46.82
2023-03-26T02:15:17.529Z,46.29
2023-03-26T02:17:44.928Z,46.06
2023-03-26T02:20:14.491Z,45.65
2023-03-26T02:22:45.714Z,45.94
2023-03-26T02:25:19.350Z,45.76
2023-03-26T02:27:49.028Z,46.04
2023-03-26T02:30:19.854Z,45.17
2023-03-26T02:32:47.838Z,44.97
2023-03-26T02:35:15.671Z,44.63
2023-03-26T02:37:46.944Z,45.46
2023-03-26T02:40:14.673Z,44.48
2023-03-26T02:42:42.429Z,44.19
2023-03-26T02:45:10.382Z,44.49
2023-03-26T02:47:39.738Z,44.03
2023-03-26T02:50:09.728Z,43.99
2023-03-26T02:52:38.998Z,43.77
2023-03-26T02:55:07.416Z,43.68
2023-03-26T02:57:35.085Z,43.69
2023-03-26T03:00:09.114Z,43.51
2023-03-26T03:02:39.821Z,44.23
2023-03-26T03:05:08.830Z,44.38
2023-03-26T03:07:38.005Z,43.82
2023-03-26T03:10:08.745Z,43.19
2023-03-26T03:12:38.569Z,43.02
2023-03-26T03:15:06.378Z,42.97
2023-03-26T03:17:33.978Z,43.32
2023-03-26T03:20:01.681Z,43.65
2023-03-26T03:22:30.108Z,44.18
2023-03-26T03:24:59.961Z,43.45
2023-03-26T03:27:27.789Z,43.26
2023-03-26T03:29:55.965Z,44.20
2023-03-26T03:32:24.464Z,43.46
2023-03-26T03:34:52.340Z,44.64
2023-03-26T03:37:20.337Z,44.00
2023-03-26T03:39:48.541Z,42.86
2023-03-26T03:42:16.482Z,42.62
2023-03-26T03:44:44.443Z,42.92
2023-03-26T03:47:13.890Z,42.76
2023-03-26T03:49:41.869Z,44.27
2023-03-26T03:52:09.348Z,43.09
2023-03-26T03:54:37.383Z,43.45
2023-03-26T03:57:05.648Z,42.94
2023-03-26T03:59:33.679Z,43.19
2023-03-26T04:02:04.074Z,44.28
2023-03-26T04:04:32.826Z,43.13
2023-03-26T04:07:00.715Z,42.87
2023-03-26T04:09:28.591Z,42.77
2023-03-26T04:11:56.645Z,42.91
2023-03-26T04:14:25.375Z,42.69
2023-03-26T04:16:55.039Z,42.93
2023-03-26T04:19:23.235Z,42.79
2023-03-26T04:21:50.652Z,42.77
2023-03-26T04:24:20.547Z,43.02
2023-03-26T04:26:51.004Z,43.11
2023-03-26T04:29:22.089Z,42.94
2023-03-26T04:31:51.158Z,42.97
2023-03-26T04:34:24.431Z,43.40
2023-03-26T04:36:54.683Z,43.54
2023-03-26T04:39:23.684Z,43.48
2023-03-26T04:41:55.453Z,43.15
2023-03-26T04:44:22.848Z,43.65
2023-03-26T04:46:52.958Z,43.43
2023-03-26T04:49:21.116Z,44.50
2023-03-26T04:51:48.584Z,44.19
2023-03-26T04:54:20.625Z,44.80
2023-03-26T04:56:58.744Z,44.19
2023-03-26T04:59:35.142Z,44.01
2023-03-26T05:02:05.556Z,43.46
2023-03-26T05:04:36.836Z,43.15
2023-03-26T05:07:04.692Z,43.31
2023-03-26T05:09:33.364Z,43.05
2023-03-26T05:12:03.131Z,43.05
2023-03-26T05:14:36.234Z,42.99
2023-03-26T05:17:06.092Z,42.86
2023-03-26T05:19:33.775Z,43.25
2023-03-26T05:22:01.290Z,43.94
2023-03-26T05:24:29.134Z,43.20
2023-03-26T05:26:57.191Z,44.96
2023-03-26T05:29:24.842Z,43.71
2023-03-26T05:31:52.428Z,43.40
2023-03-26T05:34:20.732Z,43.27
2023-03-26T05:36:48.634Z,43.09
2023-03-26T05:39:17.407Z,42.58
2023-03-26T05:41:46.219Z,42.55
2023-03-26T05:44:13.598Z,42.64
2023-03-26T05:46:41.157Z,42.48
2023-03-26T05:49:10.904Z,42.52
2023-03-26T05:51:38.558Z,42.86
2023-03-26T05:54:08.718Z,42.17
2023-03-26T05:56:38.272Z,42.11
2023-03-26T05:59:08.885Z,42.25
2023-03-26T06:01:37.603Z,42.21
2023-03-26T06:04:06.123Z,43.00
2023-03-26T06:06:35.897Z,42.37
2023-03-26T06:09:04.537Z,41.56
2023-03-26T06:11:32.498Z,40.45
2023-03-26T06:14:00.694Z,41.64
2023-03-26T06:16:28.627Z,41.03
2023-03-26T06:18:57.408Z,41.64
2023-03-26T06:21:26.412Z,39.99
2023-03-26T06:23:55.456Z,39.72
2023-03-26T06:26:26.562Z,40.89
2023-03-26T06:28:54.223Z,39.32
2023-03-26T06:31:21.905Z,38.79
2023-03-26T06:33:49.910Z,38.82
2023-03-26T06:36:17.443Z,38.45
2023-03-26T06:38:48.863Z,38.52
2023-03-26T06:41:17.025Z,34.93
2023-03-26T06:43:44.897Z,33.22
2023-03-26T06:46:13.336Z,30.98
2023-03-26T06:48:42.329Z,32.42
2023-03-26T06:51:12.682Z,32.98
2023-03-26T06:53:41.948Z,33.44
2023-03-26T06:56:09.945Z,33.90
2023-03-26T06:58:37.970Z,34.24
2023-03-26T07:01:18.030Z,34.38
2023-03-26T07:03:59.839Z,34.83
2023-03-26T07:06:53.887Z,35.59
2023-03-26T07:09:30.426Z,35.53
2023-03-26T07:11:59.651Z,35.43
2023-03-26T07:14:30.443Z,38.29
2023-03-26T07:17:01.297Z,41.31
2023-03-26T07:19:29.524Z,39.92
2023-03-26T07:21:57.569Z,41.29
2023-03-26T07:24:27.005Z,41.17
2023-03-26T07:27:07.254Z,40.55
2023-03-26T07:29:45.721Z,40.25
2023-03-26T07:32:24.150Z,39.60
2023-03-26T07:35:03.701Z,39.62
2023-03-26T07:37:40.982Z,40.56
2023-03-26T07:40:48.663Z,41.43
2023-03-26T07:43:46.289Z,39.96
2023-03-26T07:46:15.309Z,41.39
2023-03-26T07:48:49.840Z,40.51
2023-03-26T07:51:18.753Z,40.51
2023-03-26T07:53:46.923Z,40.42
2023-03-26T07:56:17.322Z,41.51
2023-03-26T07:59:18.088Z,41.28
2023-03-26T08:02:19.604Z,41.50
2023-03-26T08:04:53.487Z,43.02
2023-03-26T08:07:25.102Z,41.62
2023-03-26T08:10:17.673Z,41.65
2023-03-26T08:13:13.120Z,41.40
2023-03-26T08:15:57.718Z,40.69
2023-03-26T08:18:44.614Z,41.49
2023-03-26T08:21:17.368Z,40.98
2023-03-26T08:24:12.539Z,39.88
2023-03-26T08:26:46.070Z,39.50
2023-03-26T08:29:21.606Z,38.75
2023-03-26T08:31:49.862Z,38.36
2023-03-26T08:34:17.295Z,38.09
2023-03-26T08:36:44.727Z,39.00
2023-03-26T08:39:13.142Z,38.54
2023-03-26T08:42:02.073Z,37.83
2023-03-26T08:44:58.258Z,37.78
2023-03-26T08:47:59.256Z,38.41
2023-03-26T08:50:51.677Z,38.78
2023-03-26T08:53:39.688Z,39.00
2023-03-26T08:56:26.544Z,36.77
2023-03-26T08:59:25.656Z,38.31
2023-03-26T09:02:31.366Z,40.42
2023-03-26T09:05:27.239Z,38.75
2023-03-26T09:08:18.895Z,38.77
2023-03-26T09:11:30.504Z,39.52
2023-03-26T09:14:28.002Z,38.88
2023-03-26T09:17:13.467Z,37.83
2023-03-26T09:19:43.842Z,37.48
2023-03-26T09:22:56.285Z,38.04
2023-03-26T09:25:48.971Z,38.61
2023-03-26T09:28:32.529Z,38.82
2023-03-26T09:31:33.555Z,39.33
2023-03-26T09:34:32.367Z,38.07
2023-03-26T09:37:26.845Z,38.76
2023-03-26T09:40:12.873Z,39.29
2023-03-26T09:42:52.269Z,38.49
2023-03-26T09:45:36.001Z,38.34
2023-03-26T09:48:32.309Z,38.21
2023-03-26T09:51:38.411Z,38.02
2023-03-26T09:54:33.938Z,37.29
2023-03-26T09:57:21.202Z,37.44
2023-03-26T10:00:04.692Z,37.34
2023-03-26T10:02:47.467Z,36.87
2023-03-26T10:05:26.931Z,35.57
2023-03-26T10:08:10.647Z,35.72
2023-03-26T10:10:43.767Z,36.82
2023-03-26T10:13:15.025Z,39.79
2023-03-26T10:15:48.700Z,40.02
2023-03-26T10:18:32.188Z,42.43
2023-03-26T10:21:26.157Z,43.44
2023-03-26T10:24:04.530Z,46.43
2023-03-26T10:27:10.269Z,46.51
2023-03-26T10:29:44.382Z,46.30
2023-03-26T10:32:44.339Z,46.67
2023-03-26T10:35:19.968Z,46.17
2023-03-26T10:37:58.915Z,47.29
2023-03-26T10:41:04.693Z,47.09
2023-03-26T10:44:05.632Z,44.24
2023-03-26T10:46:47.871Z,43.52
2023-03-26T10:49:34.015Z,42.33
2023-03-26T10:52:06.983Z,41.93
2023-03-26T10:54:58.164Z,41.44
2023-03-26T10:57:38.069Z,39.98
2023-03-26T11:00:15.429Z,40.55
2023-03-26T11:03:11.956Z,41.23
2023-03-26T11:06:07.485Z,41.51
2023-03-26T11:08:48.523Z,41.70
2023-03-26T11:11:38.757Z,41.24
2023-03-26T11:14:35.195Z,40.94
2023-03-26T11:17:43.834Z,40.62
2023-03-26T11:20:17.493Z,40.32
2023-03-26T11:23:07.503Z,41.08
2023-03-26T11:25:44.016Z,42.29
2023-03-26T11:29:03.768Z,42.25
2023-03-26T11:31:49.190Z,42.91
2023-03-26T11:34:19.352Z,41.66
2023-03-26T11:36:50.605Z,42.16
2023-03-26T11:39:24.638Z,40.52
2023-03-26T11:41:59.342Z,40.57
2023-03-26T11:44:33.034Z,41.16
2023-03-26T11:47:05.009Z,36.77
2023-03-26T11:49:33.327Z,37.64
2023-03-26T11:52:02.699Z,37.58
2023-03-26T11:54:30.248Z,36.43
2023-03-26T11:57:06.995Z,36.16
2023-03-26T11:59:49.028Z,37.48
2023-03-26T12:02:35.717Z,34.95
2023-03-26T12:05:21.947Z,34.91
2023-03-26T12:08:00.228Z,35.94
2023-03-26T12:10:27.887Z,35.77
2023-03-26T12:12:58.326Z,31.62
2023-03-26T12:15:26.684Z,31.15
2023-03-26T12:17:58.041Z,29.62
2023-03-26T12:20:25.485Z,29.46
2023-03-26T12:23:00.948Z,28.50
2023-03-26T12:25:30.842Z,27.93
2023-03-26T12:28:04.848Z,29.14
2023-03-26T12:30:34.574Z,29.73
2023-03-26T12:33:26.178Z,29.65
2023-03-26T12:35:55.074Z,30.17
2023-03-26T12:38:33.910Z,29.57
2023-03-26T12:44:46.649Z,29.41
2023-03-26T12:44:46.872Z,29.72
2023-03-26T12:47:56.060Z,29.94
2023-03-26T12:49:35.510Z,29.87
2023-03-26T12:52:25.253Z,30.33
2023-03-26T12:55:02.451Z,30.87
2023-03-26T12:57:59.891Z,31.18
2023-03-26T13:01:23.659Z,30.46
2023-03-26T13:04:05.439Z,30.62
2023-03-26T13:06:59.057Z,30.74
2023-03-26T13:09:38.365Z,30.27
2023-03-26T13:12:27.446Z,31.00
2023-03-26T13:15:09.636Z,31.85
2023-03-26T13:17:45.302Z,31.83
2023-03-26T13:20:18.831Z,31.43
2023-03-26T13:23:08.317Z,31.84
2023-03-26T13:25:53.160Z,29.85
2023-03-26T13:28:39.444Z,29.34
2023-03-26T13:31:20.625Z,28.94
2023-03-26T13:33:58.200Z,29.17
2023-03-26T13:36:58.585Z,31.08
2023-03-26T13:39:49.952Z,31.11
2023-03-26T13:42:42.263Z,30.21
2023-03-26T13:45:28.404Z,29.96
2023-03-26T13:47:57.489Z,30.19
2023-03-26T13:50:34.340Z,29.60
2023-03-26T13:53:13.438Z,29.76
2023-03-26T13:55:44.042Z,29.78
2023-03-26T13:58:24.429Z,29.61
2023-03-26T14:01:12.632Z,29.80
2023-03-26T14:03:55.629Z,29.19
2023-03-26T14:06:22.994Z,28.56
2023-03-26T14:09:02.695Z,28.93
2023-03-26T14:11:56.897Z,28.80
2023-03-26T14:14:48.476Z,28.49
2023-03-26T14:17:39.296Z,27.94
2023-03-26T14:20:21.895Z,28.00
2023-03-26T14:23:24.814Z,27.71
2023-03-26T14:26:22.060Z,27.46
2023-03-26T14:28:58.305Z,27.94
2023-03-26T14:31:48.605Z,28.08
2023-03-26T14:34:30.035Z,27.72
2023-03-26T14:37:17.870Z,28.00
2023-03-26T14:40:40.724Z,27.43
2023-03-26T14:43:30.021Z,26.00
2023-03-26T14:46:20.528Z,26.37
2023-03-26T14:48:57.244Z,26.35
2023-03-26T14:51:34.386Z,26.04
2023-03-26T14:54:12.068Z,26.12
2023-03-26T14:56:51.298Z,26.64
2023-03-26T14:59:45.045Z,26.60
2023-03-26T15:02:37.670Z,26.63
2023-03-26T15:05:42.315Z,27.20
2023-03-26T15:08:34.356Z,26.92
2023-03-26T15:11:17.353Z,26.74
2023-03-26T15:13:59.568Z,27.74
2023-03-26T15:16:52.462Z,28.06
2023-03-26T15:19:38.907Z,27.74
2023-03-26T15:22:12.590Z,27.27
2023-03-26T15:25:01.678Z,27.23
2023-03-26T15:27:47.502Z,26.82
2023-03-26T15:30:50.280Z,27.44
2023-03-26T15:33:41.840Z,27.70
2023-03-26T15:36:41.153Z,27.65
2023-03-26T15:39:32.041Z,27.69
2023-03-26T15:42:00.042Z,27.82
2023-03-26T15:45:16.029Z,28.62
2023-03-26T15:47:54.304Z,28.73
2023-03-26T15:50:24.910Z,28.27
2023-03-26T15:53:18.636Z,29.38
2023-03-26T15:55:55.086Z,29.55
2023-03-26T15:58:31.965Z,29.92
2023-03-26T16:01:29.356Z,29.88
2023-03-26T16:04:00.631Z,30.00
2023-03-26T16:06:51.985Z,29.83
2023-03-26T16:09:46.278Z,30.17
2023-03-26T16:12:16.728Z,30.59
2023-03-26T16:15:13.857Z,30.44
2023-03-26T16:18:15.492Z,30.53
2023-03-26T16:20:54.051Z,30.18
2023-03-26T16:23:27.263Z,29.29
2023-03-26T16:26:11.370Z,29.37
2023-03-26T16:28:44.983Z,29.19
2023-03-26T16:31:36.820Z,29.29
2023-03-26T16:34:03.382Z,28.70
2023-03-26T16:36:45.218Z,29.60
2023-03-26T16:39:18.107Z,28.61
2023-03-26T16:41:49.954Z,29.24
2023-03-26T16:44:36.062Z,29.30
2023-03-26T16:47:32.405Z,30.66
2023-03-26T16:50:10.797Z,31.52
2023-03-26T16:52:50.568Z,31.82
2023-03-26T16:55:21.581Z,32.55
2023-03-26T16:58:29.918Z,32.52
2023-03-26T17:01:21.393Z,31.67
2023-03-26T17:03:49.229Z,31.30
2023-03-26T17:07:01.844Z,31.89
2023-03-26T17:10:00.580Z,31.80
2023-03-26T17:12:34.589Z,31.48
2023-03-26T17:15:20.926Z,31.17
2023-03-26T17:18:09.389Z,30.66
2023-03-26T17:20:42.493Z,30.87
2023-03-26T17:23:32.054Z,31.54
2023-03-26T17:26:18.268Z,30.62
2023-03-26T17:28:55.748Z,30.50
2023-03-26T17:31:32.639Z,29.98
2023-03-26T17:34:48.400Z,29.95
2023-03-26T17:37:16.332Z,30.73
2023-03-26T17:39:43.774Z,31.10
2023-03-26T17:42:21.269Z,31.39
2023-03-26T17:44:55.730Z,31.77
2023-03-26T17:47:26.360Z,31.30
2023-03-26T17:50:00.088Z,31.04
2023-03-26T17:52:49.150Z,30.92
2023-03-26T17:55:23.463Z,30.92
2023-03-26T17:57:53.733Z,30.88
2023-03-26T18:00:23.926Z,31.31
2023-03-26T18:03:02.383Z,31.35
2023-03-26T18:05:30.931Z,31.79
2023-03-26T18:08:15.205Z,31.89
2023-03-26T18:10:56.342Z,31.95
2023-03-26T18:14:02.012Z,31.46
2023-03-26T18:16:38.008Z,31.67
2023-03-26T18:19:19.121Z,31.75
2023-03-26T18:21:50.425Z,31.88
2023-03-26T18:24:31.407Z,31.83
2023-03-26T18:27:03.457Z,31.60
2023-03-26T18:29:35.750Z,31.75
2023-03-26T18:32:09.424Z,31.78
2023-03-26T18:34:40.907Z,31.59
2023-03-26T18:37:11.398Z,32.08
2023-03-26T18:39:39.578Z,31.62
2023-03-26T18:42:07.137Z,31.76
2023-03-26T18:44:39.123Z,31.78
2023-03-26T18:47:07.334Z,31.85
2023-03-26T18:49:36.598Z,31.92
2023-03-26T18:52:04.450Z,32.97
2023-03-26T18:54:35.487Z,33.27
2023-03-26T18:57:15.219Z,33.12
2023-03-26T18:59:45.540Z,33.11
2023-03-26T19:02:13.953Z,33.24
2023-03-26T19:04:46.213Z,32.99
2023-03-26T19:07:17.191Z,32.43
2023-03-26T19:09:45.986Z,32.06
2023-03-26T19:12:28.024Z,31.80
2023-03-26T19:14:56.949Z,31.82
2023-03-26T19:17:28.217Z,31.56
2023-03-26T19:19:57.434Z,31.32
2023-03-26T19:22:25.661Z,31.16
2023-03-26T19:24:57.738Z,31.01
2023-03-26T19:27:25.441Z,31.16
2023-03-26T19:29:53.206Z,31.18
2023-03-26T19:32:28.892Z,31.24
2023-03-26T19:34:59.026Z,31.27
2023-03-26T19:37:30.083Z,31.25
2023-03-26T19:40:07.190Z,31.28
2023-03-26T19:42:43.295Z,31.30
2023-03-26T19:45:18.594Z,31.93
2023-03-26T19:47:49.969Z,31.73
2023-03-26T19:50:25.492Z,32.12
2023-03-26T19:53:18.965Z,32.59
2023-03-26T19:55:58.983Z,31.92
2023-03-26T19:58:27.391Z,32.19
2023-03-26T20:00:58.584Z,33.24
2023-03-26T20:03:29.892Z,33.15
2023-03-26T20:05:57.502Z,32.54
2023-03-26T20:08:26.984Z,33.73
2023-03-26T20:10:57.064Z,34.21
2023-03-26T20:13:24.978Z,33.49
2023-03-26T20:16:06.107Z,33.14
2023-03-26T20:18:34.968Z,32.49
2023-03-26T20:21:05.534Z,33.11
2023-03-26T20:23:33.067Z,33.20
2023-03-26T20:26:00.779Z,32.68
2023-03-26T20:28:28.398Z,33.33
2023-03-26T20:30:56.344Z,32.50
2023-03-26T20:33:26.636Z,33.00
2023-03-26T20:35:55.940Z,32.86
2023-03-26T20:38:39.048Z,32.87
2023-03-26T20:41:13.460Z,33.24
2023-03-26T20:43:42.440Z,32.45
2023-03-26T20:46:15.897Z,32.55
2023-03-26T20:48:43.842Z,32.51
2023-03-26T20:51:15.600Z,33.16
2023-03-26T20:53:44.492Z,33.07
2023-03-26T20:56:17.898Z,34.02
2023-03-26T20:58:47.847Z,33.49
2023-03-26T21:01:17.532Z,33.43
2023-03-26T21:03:46.160Z,33.81
2023-03-26T21:06:13.970Z,33.42
2023-03-26T21:08:43.028Z,33.46
2023-03-26T21:11:26.552Z,33.42
2023-03-26T21:14:33.449Z,33.43
2023-03-26T21:17:01.818Z,33.57
2023-03-26T21:19:29.742Z,34.93
2023-03-26T21:22:04.769Z,37.72
2023-03-26T21:24:51.171Z,40.94
2023-03-26T21:27:46.077Z,42.78
2023-03-26T21:30:16.338Z,45.70
2023-03-26T21:32:45.522Z,44.90
2023-03-26T21:35:14.932Z,45.41
2023-03-26T21:37:44.407Z,45.13
2023-03-26T21:40:16.726Z,45.94
2023-03-26T21:42:46.981Z,44.77
2023-03-26T21:45:14.855Z,44.94
2023-03-26T21:47:43.102Z,44.90
2023-03-26T21:50:13.869Z,44.48
2023-03-26T21:52:47.249Z,44.28
2023-03-26T21:55:22.454Z,43.81
2023-03-26T21:58:13.351Z,44.07
2023-03-26T22:00:56.956Z,44.66
2023-03-26T22:03:30.387Z,44.65
2023-03-26T22:06:03.599Z,44.60
2023-03-26T22:08:36.816Z,47.25
2023-03-26T22:11:05.707Z,46.17
2023-03-26T22:13:35.745Z,48.06
2023-03-26T22:16:03.209Z,48.14
2023-03-26T22:18:30.893Z,49.73
2023-03-26T22:20:59.961Z,52.40
2023-03-26T22:23:28.074Z,53.85
2023-03-26T22:25:56.053Z,57.56
2023-03-26T22:28:23.734Z,57.54
2023-03-26T22:30:52.280Z,58.32
2023-03-26T22:33:20.120Z,58.89
2023-03-26T22:35:48.010Z,59.10
2023-03-26T22:38:17.112Z,60.40
2023-03-26T22:40:44.555Z,57.89
2023-03-26T22:43:12.277Z,57.02
2023-03-26T22:45:39.721Z,57.20
2023-03-26T22:48:07.422Z,56.40
2023-03-26T22:50:35.174Z,56.12
2023-03-26T22:53:02.557Z,56.05
2023-03-26T22:55:30.212Z,56.45
2023-03-26T22:57:57.991Z,56.51
2023-03-26T23:00:26.469Z,56.27
2023-03-26T23:02:55.998Z,55.83
2023-03-26T23:05:23.841Z,56.15
2023-03-26T23:07:52.334Z,56.07
2023-03-26T23:10:21.600Z,56.13
2023-03-26T23:12:49.685Z,57.61
2023-03-26T23:15:17.175Z,58.68
2023-03-26T23:17:44.583Z,58.01
2023-03-26T23:20:22.511Z,58.64
2023-03-26T23:22:50.685Z,58.74
2023-03-26T23:25:18.237Z,59.18
2023-03-26T23:27:45.913Z,58.31
2023-03-26T23:30:13.630Z,58.77
2023-03-26T23:32:41.462Z,59.00
2023-03-26T23:35:09.626Z,58.74
2023-03-26T23:37:38.849Z,60.98
2023-03-26T23:40:10.128Z,61.84
2023-03-26T23:42:38.049Z,63.68
2023-03-26T23:45:06.224Z,62.50
2023-03-26T23:47:34.965Z,64.11
2023-03-26T23:50:04.407Z,63.13
2023-03-26T23:52:31.880Z,62.45
2023-03-26T23:55:02.325Z,62.23
2023-03-26T23:57:30.609Z,64.00
2023-03-26T23:59:58.456Z,62.23
